Flight Track Log - Related Links

Times and Time Zones

All times are in EDT time to prevent confusion due to time zone crossing. See the KAP46 flight status page for this flight to view local times or setup timezone preferences in your user account.

Time Position Orientation Groundspeed Altitude Reporting Facility
EDT Latitude Longitude Course Direction KTS MPH feet Rate Location/Type
Thu 01:19:52 PM 44.7372 -74.7019 160° South 150 173 5,900  Level Boston Center
Thu 01:20:53 PM 44.6958 -74.6769 157° South 150 173 6,600 689 Climbing Boston Center
Thu 01:21:54 PM 44.6567 -74.6608 164° South 150 173 7,300 446 Climbing Boston Center
Thu 01:22:54 PM 44.6153 -74.6419 162° South 150 173 7,500 150 Climbing Boston Center
Thu 01:23:54 PM 44.5678 -74.6197 162° South 166 191 7,600  Climbing Boston Center
Thu 01:24:00 PM 44.7047 -74.7273 160° South  Level FlightAware Approximate
Thu 01:24:52 PM 44.5183 -74.5944 160° South 177 204 7,500  Level Boston Center
Thu 01:25:53 PM 44.4686 -74.5725 163° South 184 212 7,500  Level Boston Center
Thu 01:26:53 PM 44.4211 -74.5503 162° South 184 212 7,500  Level Boston Center
Thu 01:27:51 PM 44.3717 -74.5283 162° South 184 212 7,500 50 Level Boston Center
Thu 01:28:53 PM 44.3261 -74.5092 163° South 184 212 7,600  Climbing Boston Center
Thu 01:29:55 PM 44.2786 -74.4872 162° South 184 212 7,500 -50 Descending Boston Center
Thu 01:30:54 PM 44.2353 -74.4656 160° South 179 206 7,500  Level Boston Center
Thu 01:31:54 PM 44.1856 -74.4436 162° South 179 206 7,500  Level Boston Center
Thu 01:32:52 PM 44.1422 -74.4247 163° South 173 199 7,500  Level Boston Center
Thu 01:33:53 PM 44.0967 -74.4031 161° South 173 199 7,500  Level Boston Center
Thu 01:34:53 PM 44.0492 -74.3811 162° South 173 199 7,500  Level Boston Center
Thu 01:35:54 PM 44.0056 -74.3625 163° South 173 199 7,500  Level Boston Center
Thu 01:36:54 PM 43.9581 -74.3408 162° South 178 205 7,500 -51 Level Boston Center
Thu 01:37:52 PM 43.9147 -74.3219 163° South 178 205 7,400 -51 Descending Boston Center
Thu 01:38:52 PM 43.8669 -74.3006 162° South 178 205 7,400  Level Boston Center
Thu 01:39:53 PM 43.8236 -74.2789 160° South 178 205 7,400  Level Boston Center
Thu 01:40:54 PM 43.7781 -74.2575 161° South 173 199 7,400 46 Level Boston Center
Thu 01:42:04 PM 43.7222 -74.2328 162° South 173 199 7,500  Climbing Boston Center
Thu 01:43:04 PM 43.6767 -74.2142 164° South 173 199 7,400 -50 Descending Boston Center
Thu 01:44:05 PM 43.6311 -74.1956 164° South 173 199 7,400  Level Boston Center
Thu 01:45:17 PM 43.5856 -74.1742 161° South 173 199 7,400  Level Boston Center
Thu 01:46:18 PM 43.5297 -74.1469 161° South 173 199 7,400  Level Boston Center
Thu 01:46:57 PM 43.4944 -74.1344 166° South 175 201 7,400  Level Boston Center
Thu 01:47:18 PM 43.4842 -74.1283 157° South 173 199 7,400  Level Boston Center
Thu 01:47:39 PM 43.4614 -74.1192 164° South 174 200 7,400  Level Boston Center
Thu 01:48:15 PM 43.4364 -74.1069 160° South 173 199 7,400  Level Boston Center
Thu 01:48:46 PM 43.4117 -74.0950 161° South 174 200 7,400  Level Boston Center
Thu 01:49:16 PM 43.3889 -74.0858 164° South 173 199 7,400  Level Boston Center
Thu 01:49:41 PM 43.3681 -74.0794 167° South 177 204 7,400 197 Level Boston Center
Thu 01:50:17 PM 43.3392 -74.0617 156° South 179 206 7,600 122 Climbing Boston Center
Thu 01:50:30 PM 43.3331 -74.0614 178° South 173 199 7,500 -393 Descending Boston Center
Thu 01:51:18 PM 43.2958 -74.0433 161° South 184 212 7,200 -456 Descending Boston Center
Thu 01:51:49 PM 43.2647 -74.0283 161° South 187 215 6,900 -310 Descending Boston Center
Thu 01:52:16 PM 43.2419 -74.0192 164° South 184 212 6,900 -273 Level Boston Center
Thu 01:52:55 PM 43.2128 -74.0069 163° South 191 220 6,600 -393 Descending Boston Center
Thu 01:53:17 PM 43.1964 -74.0008 165° South 184 212 6,500 -581 Descending Boston Center
Thu 01:53:57 PM 43.1589 -73.9856 163° South 194 223 6,000 -492 Descending Boston Center
Thu 01:54:18 PM 43.1381 -73.9850 179° South 189 217 6,000 -400 Level Boston Center
Thu 01:54:57 PM 43.1047 -73.9869 182° South 200 230 5,600 -316 Descending Boston Center
Thu 01:55:15 PM 43.0964 -73.9842 166° South 194 223 5,700 -436 Climbing Boston Center
Thu 01:55:52 PM 43.0528 -73.9831 179° South 196 226 5,200 -393 Descending Boston Center
Thu 01:56:16 PM 43.0464 -73.9828 178° South 194 223 5,300 -400 Climbing Boston Center
Thu 01:56:52 PM 43.0006 -73.9789 176° South 193 222 4,800 -500 Descending Boston Center
Thu 01:57:16 PM 42.9842 -73.9728 165° South 194 223 4,800 -295 Level Boston Center
Thu 01:57:53 PM 42.9444 -73.9661 173° South 188 216 4,500 -393 Descending Boston Center
Thu 01:58:17 PM 42.9258 -73.9542 155° Southeast 194 223 4,400 -500 Descending Boston Center
Thu 01:58:53 PM 42.8947 -73.9450 168° South 188 216 4,000 -492 Descending Boston Center
Thu 01:59:18 PM 42.8825 -73.9361 152° Southeast 194 223 3,900 -369 Descending Boston Center
Thu 01:59:58 PM 42.8408 -73.9239 168° South 186 214 3,600 -508 Descending Boston Center
Thu 02:00:17 PM 42.8286 -73.9178 160° South 189 217 3,400 -656 Descending Boston Center
Thu 02:01:02 PM 42.7933 -73.9000 160° South 187 215 2,900 4,100 Descending Boston Center
Thu 02:01:17 PM 42.7789 -73.8942 163° South 184 212 7,500 -794 Climbing Boston Center
Thu 02:02:10 PM 42.7353 -73.8733 161° South 190 219 2,000  Descending Boston Center
Thu 02:02:16 PM 42.7311 -73.8731 177° South 184 212 7,500 -824 Climbing Boston Center
Thu 02:03:01 PM 42.7086 -73.8386 132° Southeast 151 174 1,300  Descending Boston Center
Thu 02:03:16 PM 42.6792 -73.8522 199° South 184 212 7,500 -689 Climbing Boston Center
Thu 02:04:02 PM 42.7256 -73.8053 37° Northeast 112 129 600 -9,000 Descending Boston Center
Thu 02:06:00 PM 42.7333 -73.8000 170° South  Level FlightAware Approximate
Thu 02:13:00 PM 42.7491 -73.8020 170° South  Level Estimated
Thu 02:14:00 PM 42.7491 -73.8020 170° South  Level Estimated

Login

Don't have an account? Register now (free) for customized features, flight alerts, and more!